Home > Products > Valid Products > TAF

000
FTUS43 KARX 230529
TAFRST
TAF
KRST 230529Z 2306/2406 19016KT 1/2SM -DZ FG OVC002
      TEMPO 2306/2308 1 1/2SM -DZ BR
     FM231200 19013KT 2SM -DZ BR OVC004
     FM232100 31008KT 4SM -RA BR OVC004
     FM240200 32018KT 4SM -RA BR OVC004=



000
FTUS43 KARX 230529
TAFLSE
TAF
KLSE 230529Z 2306/2406 18010KT 2SM BR OVC004 WS020/22042KT
      TEMPO 2306/2308 1SM BR
     FM230800 18008KT 2SM -DZ BR OVC004 WS020/22046KT
     FM231100 18006KT 4SM -DZ BR OVC006
     FM232200 VRB04KT 4SM -RA BR OVC008
     FM240200 31007KT 4SM -RA BR OVC008=



000
FTUS43 KARX 230529
TAFRST
TAF
KRST 230529Z 2306/2406 19016KT 1/2SM -DZ FG OVC002
      TEMPO 2306/2308 1 1/2SM -DZ BR
     FM231200 19013KT 2SM -DZ BR OVC004
     FM232100 31008KT 4SM -RA BR OVC004
     FM240200 32018KT 4SM -RA BR OVC004=



000
FTUS43 KARX 230529
TAFLSE
TAF
KLSE 230529Z 2306/2406 18010KT 2SM BR OVC004 WS020/22042KT
      TEMPO 2306/2308 1SM BR
     FM230800 18008KT 2SM -DZ BR OVC004 WS020/22046KT
     FM231100 18006KT 4SM -DZ BR OVC006
     FM232200 VRB04KT 4SM -RA BR OVC008
     FM240200 31007KT 4SM -RA BR OVC008=



000
FTUS43 KARX 230414 AAD
TAFRST
TAF AMD
KRST 230414Z 2304/2324 19016KT 1/4SM FG OVC002
     FM230600 19016KT 1/4SM -DZ FG OVC002
     FM231200 19013KT 2SM -DZ BR OVC004
     FM232100 31008KT 4SM -RA BR OVC004=



000
FTUS43 KARX 230414 AAD
TAFRST
TAF AMD
KRST 230414Z 2304/2324 19016KT 1/4SM FG OVC002
     FM230600 19016KT 1/4SM -DZ FG OVC002
     FM231200 19013KT 2SM -DZ BR OVC004
     FM232100 31008KT 4SM -RA BR OVC004=



000
FTUS43 KARX 230330 AAC
TAFRST
TAF AMD
KRST 230330Z 2304/2324 19016KT 1/2SM FG OVC002
      TEMPO 2304/2305 1SM BR
     FM230600 19015KT 1/4SM -DZ FG OVC002
     FM231200 18012KT 2SM -DZ BR OVC004
     FM232100 31008KT 4SM -RA BR OVC006=



000
FTUS43 KARX 230330 AAC
TAFRST
TAF AMD
KRST 230330Z 2304/2324 19016KT 1/2SM FG OVC002
      TEMPO 2304/2305 1SM BR
     FM230600 19015KT 1/4SM -DZ FG OVC002
     FM231200 18012KT 2SM -DZ BR OVC004
     FM232100 31008KT 4SM -RA BR OVC006=



000
FTUS43 KARX 230327 AAB
TAFLSE
TAF AMD
KLSE 230327Z 2303/2324 17010KT 5SM BR OVC009 WS020/22042KT
     FM230800 17008KT 4SM -DZ BR OVC004 WS020/22046KT
     FM231100 17006KT 4SM -DZ BR OVC006
     FM232200 14006KT 2SM -RA BR OVC006=



000
FTUS43 KARX 230327 AAB
TAFLSE
TAF AMD
KLSE 230327Z 2303/2324 17010KT 5SM BR OVC009 WS020/22042KT
     FM230800 17008KT 4SM -DZ BR OVC004 WS020/22046KT
     FM231100 17006KT 4SM -DZ BR OVC006
     FM232200 14006KT 2SM -RA BR OVC006=



000
FTUS43 KARX 230106 AAB
TAFRST
TAF AMD
KRST 230106Z 2301/2324 16008KT 1/4SM FG OVC002
      TEMPO 2302/2303 1SM BR
     FM230300 19012KT 3SM BR OVC002
     FM230600 19015KT 1/4SM -DZ FG OVC002
     FM231200 18012KT 2SM -DZ BR OVC004
     FM232100 31008KT 4SM -DZ BR OVC006=



000
FTUS43 KARX 230106 AAB
TAFRST
TAF AMD
KRST 230106Z 2301/2324 16008KT 1/4SM FG OVC002
      TEMPO 2302/2303 1SM BR
     FM230300 19012KT 3SM BR OVC002
     FM230600 19015KT 1/4SM -DZ FG OVC002
     FM231200 18012KT 2SM -DZ BR OVC004
     FM232100 31008KT 4SM -DZ BR OVC006=



000
FTUS43 KARX 230021 AAA
TAFRST
TAF AMD
KRST 230021Z 2300/2324 17008KT 2SM BR OVC002
      TEMPO 2300/2302 1/2SM FG
     FM230400 19013KT 1SM -DZ BR OVC002
     FM230600 19015KT 1/4SM -DZ FG OVC002
     FM231200 18012KT 2SM -DZ BR OVC004
     FM232100 31008KT 4SM -DZ BR OVC006=



000
FTUS43 KARX 230021 AAA
TAFRST
TAF AMD
KRST 230021Z 2300/2324 17008KT 2SM BR OVC002
      TEMPO 2300/2302 1/2SM FG
     FM230400 19013KT 1SM -DZ BR OVC002
     FM230600 19015KT 1/4SM -DZ FG OVC002
     FM231200 18012KT 2SM -DZ BR OVC004
     FM232100 31008KT 4SM -DZ BR OVC006=



000
FTUS43 KARX 230020 AAA
TAFLSE
TAF AMD
KLSE 230020Z 2300/2324 14004KT 2SM BR OVC003
      TEMPO 2300/2302 1SM BR
     FM230400 18008KT 4SM -DZ BR OVC008
     FM230600 18008KT 2SM -DZ BR OVC004 WS020/22044KT
     FM231200 17006KT 4SM -DZ BR OVC006
     FM232200 32006KT 5SM -DZ BR OVC008=



000
FTUS43 KARX 230020 AAA
TAFLSE
TAF AMD
KLSE 230020Z 2300/2324 14004KT 2SM BR OVC003
      TEMPO 2300/2302 1SM BR
     FM230400 18008KT 4SM -DZ BR OVC008
     FM230600 18008KT 2SM -DZ BR OVC004 WS020/22044KT
     FM231200 17006KT 4SM -DZ BR OVC006
     FM232200 32006KT 5SM -DZ BR OVC008=



000
FTUS43 KARX 222333
TAFLSE
TAF
KLSE 222333Z 2300/2324 18007KT P6SM OVC008
     FM230400 18009KT 4SM -DZ BR OVC008
     FM230600 18008KT 2SM -DZ BR OVC004 WS020/22044KT
     FM231200 17006KT 4SM -DZ BR OVC006
     FM232200 32006KT 5SM -DZ BR OVC008=



000
FTUS43 KARX 222333
TAFRST
TAF
KRST 222333Z 2300/2324 19010KT 2SM BR OVC002
      TEMPO 2300/2301 1SM BR
     FM230400 19015KT 1SM -DZ BR OVC002
     FM230600 19015KT 1/4SM -DZ FG OVC002
     FM231200 18012KT 2SM -DZ BR OVC004
     FM232100 31008KT 4SM -DZ BR OVC006=



000
FTUS43 KARX 222333
TAFLSE
TAF
KLSE 222333Z 2300/2324 18007KT P6SM OVC008
     FM230400 18009KT 4SM -DZ BR OVC008
     FM230600 18008KT 2SM -DZ BR OVC004 WS020/22044KT
     FM231200 17006KT 4SM -DZ BR OVC006
     FM232200 32006KT 5SM -DZ BR OVC008=



000
FTUS43 KARX 222333
TAFRST
TAF
KRST 222333Z 2300/2324 19010KT 2SM BR OVC002
      TEMPO 2300/2301 1SM BR
     FM230400 19015KT 1SM -DZ BR OVC002
     FM230600 19015KT 1/4SM -DZ FG OVC002
     FM231200 18012KT 2SM -DZ BR OVC004
     FM232100 31008KT 4SM -DZ BR OVC006=



000
FTUS43 KARX 222326 AAC
TAFRST
TAF AMD
KRST 222326Z 2223/2318 19010KT 2SM BR OVC002
      TEMPO 2300/2301 1SM BR
     FM230400 19015KT 1SM -DZ BR OVC002
     FM230600 19015KT 1/4SM -DZ FG OVC002
     FM231200 18012KT 2SM -DZ BR OVC004=



000
FTUS43 KARX 222144 AAB
TAFRST
TAF AMD
KRST 222144Z 2222/2318 20013KT 1/4SM FG OVC002
     FM222330 19014KT P6SM SCT008
     FM230200 19014KT P6SM OVC008
     FM230400 19015KT 1SM -DZ BR OVC003
     FM230600 19016KT 1/4SM -DZ FG OVC002
     FM231200 18012KT 2SM -DZ OVC004=



000
FTUS43 KARX 222144 AAB
TAFRST
TAF AMD
KRST 222144Z 2222/2318 20013KT 1/4SM FG OVC002
     FM222330 19014KT P6SM SCT008
     FM230200 19014KT P6SM OVC008
     FM230400 19015KT 1SM -DZ BR OVC003
     FM230600 19016KT 1/4SM -DZ FG OVC002
     FM231200 18012KT 2SM -DZ OVC004=



000
FTUS43 KARX 222059 AAA
TAFRST
TAF AMD
KRST 222059Z 2221/2318 20013KT 1/2SM FG OVC002
     FM222330 19014KT P6SM SCT008
     FM230200 19014KT P6SM OVC008
     FM230400 19015KT 1SM -DZ BR OVC003
     FM230600 19016KT 1/4SM -DZ FG OVC002
     FM231200 18012KT 2SM -DZ OVC004=



000
FTUS43 KARX 222036 AAA
TAFLSE
TAF AMD
KLSE 222036Z 2221/2318 18008KT P6SM OVC009
     FM222300 18008KT P6SM BKN018
     FM230400 18009KT 4SM -DZ BR OVC008
     FM230600 18008KT 4SM -DZ BR OVC006 WS020/22046KT
     FM231200 17006KT 4SM -DZ BR OVC008=



000
FTUS43 KARX 222036 AAA
TAFLSE
TAF AMD
KLSE 222036Z 2221/2318 18008KT P6SM OVC009
     FM222300 18008KT P6SM BKN018
     FM230400 18009KT 4SM -DZ BR OVC008
     FM230600 18008KT 4SM -DZ BR OVC006 WS020/22046KT
     FM231200 17006KT 4SM -DZ BR OVC008=



000
FTUS43 KARX 221739
TAFRST
TAF
KRST 221739Z 2218/2318 21014KT 1SM BR OVC004
     FM222000 21012KT 2SM BR OVC006
     FM230300 19015KT 1SM -DZ BR OVC003
     FM230600 19016KT 1/4SM -DZ FG VV001=



000
FTUS43 KARX 221739
TAFLSE
TAF
KLSE 221739Z 2218/2318 18008KT 2SM BR OVC006
     FM222000 18008KT 3SM BR OVC008
     FM230300 18009KT 2SM -DZ BR OVC005
     FM230600 18008KT 1SM -DZ BR OVC004 WS020/22046KT
     FM231200 17006KT 1SM -DZ BR OVC004=



000
FTUS43 KARX 221739
TAFLSE
TAF
KLSE 221739Z 2218/2318 18008KT 2SM BR OVC006
     FM222000 18008KT 3SM BR OVC008
     FM230300 18009KT 2SM -DZ BR OVC005
     FM230600 18008KT 1SM -DZ BR OVC004 WS020/22046KT
     FM231200 17006KT 1SM -DZ BR OVC004=



000
FTUS43 KARX 221739
TAFRST
TAF
KRST 221739Z 2218/2318 21014KT 1SM BR OVC004
     FM222000 21012KT 2SM BR OVC006
     FM230300 19015KT 1SM -DZ BR OVC003
     FM230600 19016KT 1/4SM -DZ FG VV001=



000
FTUS43 KARX 221632 AAB
TAFLSE
TAF AMD
KLSE 221632Z 2217/2312 18009KT 2SM BR OVC006
     FM221800 19008KT 3SM BR OVC010
     FM230400 18009KT 3SM -DZ BR OVC006
     FM230600 18010KT 2SM -DZ BR OVC005 WS020/22046KT=



000
FTUS43 KARX 221630 AAC
TAFRST
TAF AMD
KRST 221630Z 2217/2312 21014KT 1SM BR OVC004
     FM221800 21012KT 2SM BR OVC006
     FM230400 19015KT 2SM -DZ BR OVC003
     FM230600 19016KT 1/2SM -DZ FG VV002=



000
FTUS43 KARX 221630 AAC
TAFRST
TAF AMD
KRST 221630Z 2217/2312 21014KT 1SM BR OVC004
     FM221800 21012KT 2SM BR OVC006
     FM230400 19015KT 2SM -DZ BR OVC003
     FM230600 19016KT 1/2SM -DZ FG VV002=



000
FTUS43 KARX 221348 AAB
TAFRST
TAF AMD
KRST 221348Z 2214/2312 21013KT 1/4SM FG VV002
     FM221600 21014KT 2SM BR OVC004
     FM221800 21012KT 5SM BR OVC006
     FM230400 19015KT 3SM -DZ BR OVC003
     FM230600 19016KT 1/2SM -DZ FG VV002=



000
FTUS43 KARX 221329 AAA
TAFLSE
TAF AMD
KLSE 221329Z 2213/2312 17008KT 2SM BR OVC004
     FM221600 18009KT 4SM BR OVC006
     FM221800 19008KT 6SM HZ OVC010
     FM230400 18009KT 4SM -DZ BR OVC006
     FM230600 18010KT 2SM -DZ BR OVC005 WS020/22046KT=



000
FTUS43 KARX 221329 AAA
TAFLSE
TAF AMD
KLSE 221329Z 2213/2312 17008KT 2SM BR OVC004
     FM221600 18009KT 4SM BR OVC006
     FM221800 19008KT 6SM HZ OVC010
     FM230400 18009KT 4SM -DZ BR OVC006
     FM230600 18010KT 2SM -DZ BR OVC005 WS020/22046KT=



000
FTUS43 KARX 221328 AAA
TAFRST
TAF AMD
KRST 221328Z 2213/2312 21014KT 1/2SM -DZ FG VV002
     FM221600 21014KT 2SM BR OVC004
     FM221800 21012KT 5SM BR OVC006
     FM230400 19015KT 3SM -DZ BR OVC003
     FM230600 19016KT 1/2SM -DZ FG VV002=



000
FTUS43 KARX 221328 AAA
TAFRST
TAF AMD
KRST 221328Z 2213/2312 21014KT 1/2SM -DZ FG VV002
     FM221600 21014KT 2SM BR OVC004
     FM221800 21012KT 5SM BR OVC006
     FM230400 19015KT 3SM -DZ BR OVC003
     FM230600 19016KT 1/2SM -DZ FG VV002=



000
FTUS43 KARX 221120
TAFLSE
TAF
KLSE 221120Z 2212/2312 18009KT 5SM -DZ BR OVC009
     FM221800 19008KT 6SM HZ OVC010
     FM230400 18009KT 4SM -DZ BR OVC006
     FM230600 18010KT 2SM -DZ BR OVC005 WS020/22046KT=



000
FTUS43 KARX 221120
TAFRST
TAF
KRST 221120Z 2212/2312 21014KT 1/2SM -DZ FG OVC002
     FM221400 21014KT 3SM BR OVC004
     FM221800 21012KT 6SM HZ OVC006
     FM230400 19015KT 3SM -DZ BR OVC003
     FM230600 19016KT 1/2SM -DZ FG VV002=



000
FTUS43 KARX 221120
TAFRST
TAF
KRST 221120Z 2212/2312 21014KT 1/2SM -DZ FG OVC002
     FM221400 21014KT 3SM BR OVC004
     FM221800 21012KT 6SM HZ OVC006
     FM230400 19015KT 3SM -DZ BR OVC003
     FM230600 19016KT 1/2SM -DZ FG VV002=



000
FTUS43 KARX 221120
TAFLSE
TAF
KLSE 221120Z 2212/2312 18009KT 5SM -DZ BR OVC009
     FM221800 19008KT 6SM HZ OVC010
     FM230400 18009KT 4SM -DZ BR OVC006
     FM230600 18010KT 2SM -DZ BR OVC005 WS020/22046KT=



000
FTUS43 KARX 221045 AAA
TAFLSE
TAF AMD
KLSE 221045Z 2211/2306 17008KT P6SM -DZ SCT006 OVC010
     FM221200 18009KT 5SM -DZ BR OVC008
     FM221800 19008KT P6SM OVC008
     FM230300 17006KT 5SM -DZ BR OVC006=



000
FTUS43 KARX 221045 AAA
TAFLSE
TAF AMD
KLSE 221045Z 2211/2306 17008KT P6SM -DZ SCT006 OVC010
     FM221200 18009KT 5SM -DZ BR OVC008
     FM221800 19008KT P6SM OVC008
     FM230300 17006KT 5SM -DZ BR OVC006=



000
FTUS43 KARX 221041 AAB
TAFRST
TAF AMD
KRST 221041Z 2211/2306 20016KT 1 1/2SM -DZ BR OVC003
     FM221400 21012KT 4SM BR OVC004
     FM221800 21012KT P6SM OVC006
     FM230300 18013KT 4SM -DZ BR OVC004=



000
FTUS43 KARX 220724 AAA
TAFRST
TAF AMD
KRST 220724Z 2207/2306 20017G25KT 6SM BR OVC009
     FM221200 21012KT 4SM BR OVC004
     FM221800 21012KT P6SM OVC006
     FM230300 18013KT 4SM -DZ BR OVC004=



000
FTUS43 KARX 220724 AAA
TAFRST
TAF AMD
KRST 220724Z 2207/2306 20017G25KT 6SM BR OVC009
     FM221200 21012KT 4SM BR OVC004
     FM221800 21012KT P6SM OVC006
     FM230300 18013KT 4SM -DZ BR OVC004=



000
FTUS43 KARX 220520
TAFRST
TAF
KRST 220520Z 2206/2306 20018G26KT P6SM OVC012
     FM220800 20016KT P6SM OVC006
     FM221200 21012KT 4SM BR OVC004
     FM221800 21012KT P6SM OVC006
     FM230300 18013KT 4SM -DZ BR OVC004=



000
FTUS43 KARX 220520
TAFRST
TAF
KRST 220520Z 2206/2306 20018G26KT P6SM OVC012
     FM220800 20016KT P6SM OVC006
     FM221200 21012KT 4SM BR OVC004
     FM221800 21012KT P6SM OVC006
     FM230300 18013KT 4SM -DZ BR OVC004=



000
FTUS43 KARX 220520
TAFLSE
TAF
KLSE 220520Z 2206/2306 17011KT P6SM OVC020 WS020/22046KT
     FM220800 18009KT P6SM -FZDZ OVC012 WS020/23048KT
     FM221000 18008KT P6SM -DZ OVC008
     FM221800 19008KT P6SM OVC008
     FM230300 17006KT 5SM -DZ BR OVC006=



000
FTUS43 KARX 220520
TAFLSE
TAF
KLSE 220520Z 2206/2306 17011KT P6SM OVC020 WS020/22046KT
     FM220800 18009KT P6SM -FZDZ OVC012 WS020/23048KT
     FM221000 18008KT P6SM -DZ OVC008
     FM221800 19008KT P6SM OVC008
     FM230300 17006KT 5SM -DZ BR OVC006=



000
FTUS43 KARX 220311 AAA
TAFRST
TAF AMD
KRST 220311Z 2203/2224 18018G26KT P6SM OVC012
     FM220600 20016KT P6SM OVC006
     FM221200 21012KT 4SM BR OVC004
     FM221800 21012KT P6SM OVC006=



000
FTUS43 KARX 220311 AAA
TAFRST
TAF AMD
KRST 220311Z 2203/2224 18018G26KT P6SM OVC012
     FM220600 20016KT P6SM OVC006
     FM221200 21012KT 4SM BR OVC004
     FM221800 21012KT P6SM OVC006=



000
FTUS43 KARX 220143 AAA
TAFLSE
TAF AMD
KLSE 220143Z 2202/2224 17011KT P6SM OVC020 WS020/22046KT
     FM220600 18009KT P6SM -FZDZ OVC012 WS020/23048KT
     FM220900 18008KT P6SM -DZ OVC008 WS020/23040KT
     FM221200 18008KT P6SM -DZ OVC008
     FM222100 19008KT P6SM OVC008=



000
FTUS43 KARX 220143 AAA
TAFLSE
TAF AMD
KLSE 220143Z 2202/2224 17011KT P6SM OVC020 WS020/22046KT
     FM220600 18009KT P6SM -FZDZ OVC012 WS020/23048KT
     FM220900 18008KT P6SM -DZ OVC008 WS020/23040KT
     FM221200 18008KT P6SM -DZ OVC008
     FM222100 19008KT P6SM OVC008=



000
FTUS43 KARX 212325
TAFLSE
TAF
KLSE 212325Z 2200/2224 17010KT P6SM OVC120 WS020/21040KT
     FM220300 18010KT P6SM OVC020 WS020/22046KT
     FM220600 18009KT P6SM -FZDZ OVC012 WS020/23048KT
     FM220900 18008KT P6SM -DZ OVC008 WS020/23040KT
     FM221200 18008KT P6SM -DZ OVC008
     FM222100 19008KT P6SM OVC008=



000
FTUS43 KARX 212325
TAFRST
TAF
KRST 212325Z 2200/2224 18018KT P6SM OVC120
     FM220200 18018KT P6SM OVC012
     FM220500 20016KT P6SM OVC006
     FM221200 21012KT 4SM BR OVC004=



000
FTUS43 KARX 212325
TAFLSE
TAF
KLSE 212325Z 2200/2224 17010KT P6SM OVC120 WS020/21040KT
     FM220300 18010KT P6SM OVC020 WS020/22046KT
     FM220600 18009KT P6SM -FZDZ OVC012 WS020/23048KT
     FM220900 18008KT P6SM -DZ OVC008 WS020/23040KT
     FM221200 18008KT P6SM -DZ OVC008
     FM222100 19008KT P6SM OVC008=



000
FTUS43 KARX 212325
TAFRST
TAF
KRST 212325Z 2200/2224 18018KT P6SM OVC120
     FM220200 18018KT P6SM OVC012
     FM220500 20016KT P6SM OVC006
     FM221200 21012KT 4SM BR OVC004=



000
FTUS43 KARX 211720
TAFLSE
TAF
KLSE 211720Z 2118/2218 17012KT P6SM SCT150
     FM212300 17010KT P6SM SCT025 BKN120 WS020/21040KT
     FM220300 18010KT P6SM BKN020 WS020/22040KT
     FM220600 18008KT P6SM -FZDZ SCT008 BKN012 WS020/23040KT
     FM220900 18008KT P6SM -DZ SCT008 BKN012 WS020/23040KT
     FM221200 17008KT P6SM -DZ OVC008=



000
FTUS43 KARX 211720
TAFLSE
TAF
KLSE 211720Z 2118/2218 17012KT P6SM SCT150
     FM212300 17010KT P6SM SCT025 BKN120 WS020/21040KT
     FM220300 18010KT P6SM BKN020 WS020/22040KT
     FM220600 18008KT P6SM -FZDZ SCT008 BKN012 WS020/23040KT
     FM220900 18008KT P6SM -DZ SCT008 BKN012 WS020/23040KT
     FM221200 17008KT P6SM -DZ OVC008=



000
FTUS43 KARX 211720
TAFRST
TAF
KRST 211720Z 2118/2218 18018G24KT P6SM SCT120
     FM212300 18018KT P6SM SCT015 BKN120
     FM220200 18018KT P6SM BKN015
     FM220500 20015KT P6SM OVC008
     FM221200 21012KT 4SM BR OVC004=



000
FTUS43 KARX 211720
TAFRST
TAF
KRST 211720Z 2118/2218 18018G24KT P6SM SCT120
     FM212300 18018KT P6SM SCT015 BKN120
     FM220200 18018KT P6SM BKN015
     FM220500 20015KT P6SM OVC008
     FM221200 21012KT 4SM BR OVC004=



000
FTUS43 KARX 211132
TAFLSE
TAF
KLSE 211132Z 2112/2212 15005KT P6SM SCT200
     FM211800 17012KT P6SM BKN150
     FM212300 17010KT P6SM SCT025 BKN120
     FM220300 18010KT P6SM BKN020
     FM220600 18010KT P6SM SCT008 BKN012=



000
FTUS43 KARX 211132
TAFRST
TAF
KRST 211132Z 2112/2212 19010KT P6SM SCT200
     FM211800 18018G24KT P6SM BKN120
     FM212300 18018KT P6SM SCT015 BKN140
     FM220200 18016KT P6SM BKN015
     FM220500 20015KT P6SM BKN008=



000
FTUS43 KARX 211132
TAFRST
TAF
KRST 211132Z 2112/2212 19010KT P6SM SCT200
     FM211800 18018G24KT P6SM BKN120
     FM212300 18018KT P6SM SCT015 BKN140
     FM220200 18016KT P6SM BKN015
     FM220500 20015KT P6SM BKN008=



000
FTUS43 KARX 211132
TAFLSE
TAF
KLSE 211132Z 2112/2212 15005KT P6SM SCT200
     FM211800 17012KT P6SM BKN150
     FM212300 17010KT P6SM SCT025 BKN120
     FM220300 18010KT P6SM BKN020
     FM220600 18010KT P6SM SCT008 BKN012=



000
FTUS43 KARX 210525
TAFRST
TAF
KRST 210525Z 2106/2206 23005KT P6SM SKC
     FM211300 19010KT P6SM SCT200
     FM211800 18018KT P6SM BKN120
     FM220400 18016KT P6SM BKN015=



000
FTUS43 KARX 210525
TAFRST
TAF
KRST 210525Z 2106/2206 23005KT P6SM SKC
     FM211300 19010KT P6SM SCT200
     FM211800 18018KT P6SM BKN120
     FM220400 18016KT P6SM BKN015=



000
FTUS43 KARX 210525
TAFLSE
TAF
KLSE 210525Z 2106/2206 VRB03KT P6SM SKC
     FM211500 15005KT P6SM SCT200
     FM211800 18012KT P6SM BKN150
     FM220500 18010KT P6SM BKN020=



000
FTUS43 KARX 210525
TAFLSE
TAF
KLSE 210525Z 2106/2206 VRB03KT P6SM SKC
     FM211500 15005KT P6SM SCT200
     FM211800 18012KT P6SM BKN150
     FM220500 18010KT P6SM BKN020=



000
FTUS43 KARX 202322
TAFLSE
TAF
KLSE 202322Z 2100/2124 29007KT P6SM SKC
     FM210200 VRB03KT P6SM SKC
     FM211500 15005KT P6SM SCT200
     FM211800 18012KT P6SM BKN150=



000
FTUS43 KARX 202322
TAFRST
TAF
KRST 202322Z 2100/2124 29007KT P6SM SKC
     FM210700 23005KT P6SM SKC
     FM211300 19010KT P6SM SCT200
     FM211800 18018KT P6SM BKN120=



000
FTUS43 KARX 202322
TAFRST
TAF
KRST 202322Z 2100/2124 29007KT P6SM SKC
     FM210700 23005KT P6SM SKC
     FM211300 19010KT P6SM SCT200
     FM211800 18018KT P6SM BKN120=



000
FTUS43 KARX 202322
TAFLSE
TAF
KLSE 202322Z 2100/2124 29007KT P6SM SKC
     FM210200 VRB03KT P6SM SKC
     FM211500 15005KT P6SM SCT200
     FM211800 18012KT P6SM BKN150=



000
FTUS43 KARX 201720
TAFRST
TAF
KRST 201720Z 2018/2118 30017KT P6SM SKC
     FM210000 27006KT P6SM SKC
     FM210700 23005KT P6SM SKC
     FM211300 19010KT P6SM SCT120=



000
FTUS43 KARX 201720
TAFLSE
TAF
KLSE 201720Z 2018/2118 30012KT P6SM SCT025
     FM210100 VRB03KT P6SM SKC
     FM211500 15005KT P6SM SCT120=



000
FTUS43 KARX 201720
TAFRST
TAF
KRST 201720Z 2018/2118 30017KT P6SM SKC
     FM210000 27006KT P6SM SKC
     FM210700 23005KT P6SM SKC
     FM211300 19010KT P6SM SCT120=



000
FTUS43 KARX 201720
TAFLSE
TAF
KLSE 201720Z 2018/2118 30012KT P6SM SCT025
     FM210100 VRB03KT P6SM SKC
     FM211500 15005KT P6SM SCT120=



000
FTUS43 KARX 201130
TAFRST
TAF
KRST 201130Z 2012/2112 29013KT P6SM SKC
     FM210000 27006KT P6SM SKC=



000
FTUS43 KARX 201130
TAFLSE
TAF
KLSE 201130Z 2012/2112 28012KT P6SM SKC
     FM201800 30012KT P6SM SCT025
     FM210100 VRB03KT P6SM SKC=



000
FTUS43 KARX 201130
TAFRST
TAF
KRST 201130Z 2012/2112 29013KT P6SM SKC
     FM210000 27006KT P6SM SKC=



000
FTUS43 KARX 201130
TAFLSE
TAF
KLSE 201130Z 2012/2112 28012KT P6SM SKC
     FM201800 30012KT P6SM SCT025
     FM210100 VRB03KT P6SM SKC=



    US Dept of Commerce
    National Oceanic and Atmospheric Administration
    National Weather Service
    1325 East West Highway
    Silver Spring, MD 20910
    Page Author: NWS Internet Services Team
Disclaimer
Information Quality
Credits
Glossary
Privacy Policy
Freedom of Information Act (FOIA)
About Us
Career Opportunities